KLAN

Capital Region International Airport

Lansing, Michigan, USA
METAR KLAN 201553Z 15009KT 10SM CLR 25/18 A3002 RMK AO2 SLP160 T02500178
Observed Flight Rules
Aug-20 @ 15:53 UTC (31 minutes ago) Visual Flight Rules
Wind Visibility Clouds
150° at 9 knots 10 miles
  • Clear skies
Temperatures Readings
Current 25°C / 77°F
Dewpoint 18°C / 64°F
Humidity 65%
Altimeter 30.02" Hg
Pressure 1016 hPa
Elevation 264
METAR KLAN 201553Z 15009KT 10SM CLR 25/18 A3002 RMK AO2 SLP160 T02500178
Observed Flight Rules
Aug-20 @ 15:53 UTC
(31 minutes ago)
VFR
Wind Visibility
150° at 9 knots 10 miles
Clouds
  • Clear skies
Temperature Dewpoint
25°C / 77°F 18°C / 64°F
Humidity Altimeter Pressure
65% 30.02" Hg 1016 hPa